Time;durP1;ratioP1;P1;durP2;ratioP2;P2;SDS_P1;SDS_P2;PMS_P1;PMS_P2;Temp;Humidity;BMP_temperature;BMP_pressure;BME280_temperature;BME280_humidity;BME280_pressure;Samples;Min_cycle;Max_cycle;Signal;HPM_P1;HPM_P2
2023/04/04 00:00:39;;;;;;;4.25;1.05;;;;;;;-146.25;74.18;52297.22;2079728;28;20274;-72
2023/04/04 00:01:41;;;;;;;3.10;0.95;;;;;;;-146.25;74.17;52262.75;2079824;28;35857;-72
2023/04/04 00:02:43;;;;;;;4.03;0.80;;;;;;;-146.25;73.95;52270.88;2080723;28;20049;-72
2023/04/04 00:03:45;;;;;;;4.80;1.00;;;;;;;-146.25;73.98;52299.25;2080428;28;38299;-72
2023/04/04 00:04:47;;;;;;;2.90;0.88;;;;;;;-146.25;74.35;52256.69;2079404;28;34760;-72
2023/04/04 00:05:51;;;;;;;2.65;0.98;;;;;;;-146.25;74.42;52266.81;2080582;28;20034;-72
2023/04/04 00:06:54;;;;;;;2.22;0.77;;;;;;;-146.25;74.56;52297.22;2080146;28;35410;-72
2023/04/04 00:07:56;;;;;;;2.85;0.95;;;;;;;-146.25;74.45;52317.50;2080403;28;37217;-73
2023/04/04 00:08:57;;;;;;;4.97;0.80;;;;;;;-146.25;73.92;52319.53;2080043;28;37074;-72
2023/04/04 00:10:01;;;;;;;3.35;1.00;;;;;;;-146.25;74.30;52311.44;2079830;28;33538;-72
2023/04/04 00:11:05;;;;;;;4.95;0.82;;;;;;;-146.25;74.26;52293.19;2078945;28;34572;-72
2023/04/04 00:12:07;;;;;;;2.30;0.75;;;;;;;-146.25;74.46;52303.31;2079773;28;35544;-72
2023/04/04 00:13:10;;;;;;;4.00;0.80;;;;;;;-146.25;74.51;52287.09;2079975;28;20046;-72
2023/04/04 00:14:12;;;;;;;5.10;0.90;;;;;;;-146.25;74.24;52254.66;2080459;28;20046;-72
2023/04/04 00:15:14;;;;;;;5.63;0.80;;;;;;;-146.25;74.02;52283.03;2079957;28;37758;-72
2023/04/04 00:16:16;;;;;;;3.72;0.80;;;;;;;-146.25;73.60;52297.22;2080267;28;32797;-72
2023/04/04 00:17:19;;;;;;;4.50;0.90;;;;;;;-146.25;73.70;52289.13;2080118;28;34239;-72
2023/04/04 00:18:24;;;;;;;4.30;0.90;;;;;;;-146.25;73.38;52315.47;2080313;28;30893;-72
2023/04/04 00:19:26;;;;;;;4.03;0.70;;;;;;;-146.25;73.31;52331.69;2080581;28;20038;-72
2023/04/04 00:20:29;;;;;;;7.60;0.90;;;;;;;-146.25;73.57;52295.19;2080051;28;37384;-72
2023/04/04 00:21:33;;;;;;;2.50;0.77;;;;;;;-146.25;73.30;52281.00;2080697;28;28256;-72
2023/04/04 00:22:35;;;;;;;5.00;0.70;;;;;;;-146.25;73.34;52309.41;2080796;28;32003;-72
2023/04/04 00:23:37;;;;;;;2.38;0.60;;;;;;;-146.25;73.38;52283.03;2080220;28;35400;-72
2023/04/04 00:24:39;;;;;;;5.40;0.80;;;;;;;-146.25;73.04;52291.16;2080653;28;20042;-73
2023/04/04 00:25:41;;;;;;;3.70;0.85;;;;;;;-146.25;73.18;52266.81;2080535;28;31869;-73
2023/04/04 00:26:42;;;;;;;3.78;0.80;;;;;;;-146.25;72.31;52301.28;2079622;28;33841;-71
2023/04/04 00:27:44;;;;;;;6.53;0.68;;;;;;;-146.25;72.74;52319.53;2080018;28;28145;-72
2023/04/04 00:28:51;;;;;;;2.53;0.60;;;;;;;-146.25;72.47;52303.31;2081015;28;20123;-72
2023/04/04 00:29:53;;;;;;;3.42;0.60;;;;;;;-146.25;73.14;52323.59;2080275;28;24382;-72
2023/04/04 00:30:55;;;;;;;4.10;0.73;;;;;;;-146.25;72.74;52323.59;2081060;28;20038;-72
2023/04/04 00:31:57;;;;;;;5.63;0.98;;;;;;;-146.25;72.31;52289.13;2080442;28;26905;-72
2023/04/04 00:33:02;;;;;;;3.58;0.70;;;;;;;-146.25;72.73;52315.47;2079466;28;20903;-72
2023/04/04 00:34:04;;;;;;;3.90;0.63;;;;;;;-146.25;72.69;52307.38;2080096;28;21870;-72
2023/04/04 00:35:06;;;;;;;2.20;0.80;;;;;;;-146.25;72.01;52293.19;2080125;28;20675;-72
2023/04/04 00:36:10;;;;;;;3.75;0.70;;;;;;;-146.25;72.08;52287.09;2071411;28;32277;-72
2023/04/04 00:37:13;;;;;;;4.82;0.88;;;;;;;-146.25;72.00;52266.81;2080757;28;20042;-72
2023/04/04 00:38:14;;;;;;;2.15;0.60;;;;;;;-146.25;72.33;52323.59;2079748;28;25910;-72
2023/04/04 00:39:19;;;;;;;3.45;0.68;;;;;;;-146.25;72.31;52270.88;2072095;28;20035;-72
2023/04/04 00:40:21;;;;;;;3.50;0.68;;;;;;;-146.25;72.29;52303.31;2079969;28;20065;-72
2023/04/04 00:41:23;;;;;;;3.13;0.70;;;;;;;-146.25;72.26;52281.00;2071660;28;25625;-72
2023/04/04 00:42:27;;;;;;;2.95;0.98;;;;;;;-146.25;72.35;52287.09;2071282;28;27058;-72
2023/04/04 00:43:33;;;;;;;3.75;0.77;;;;;;;-146.25;72.94;52268.84;2079925;28;20086;-72
2023/04/04 00:44:35;;;;;;;3.53;0.80;;;;;;;-146.25;72.97;52268.84;2072362;28;25789;-72
2023/04/04 00:45:38;;;;;;;2.10;0.60;;;;;;;-146.25;73.01;52317.50;2079971;28;20046;-72
2023/04/04 00:46:40;;;;;;;2.60;0.60;;;;;;;-146.25;73.14;52315.47;2087652;28;29728;-72
2023/04/04 00:47:43;;;;;;;4.63;0.75;;;;;;;-146.25;72.89;52262.75;2080375;28;27411;-72
2023/04/04 00:48:46;;;;;;;5.60;0.70;;;;;;;-146.25;73.19;52285.06;2079775;28;23314;-72
2023/04/04 00:49:48;;;;;;;5.43;1.00;;;;;;;-146.25;73.19;52317.50;2079885;28;20874;-72
2023/04/04 00:50:50;;;;;;;1.85;0.45;;;;;;;-146.25;73.06;52323.59;2079476;28;36748;-72
2023/04/04 00:51:51;;;;;;;2.40;0.65;;;;;;;-146.25;73.25;52366.16;2079793;28;20264;-72
2023/04/04 00:52:54;;;;;;;3.95;0.70;;;;;;;-146.25;73.24;52323.59;2071327;28;27626;-72
2023/04/04 00:53:56;;;;;;;2.20;0.63;;;;;;;-146.25;73.61;52291.16;2079889;28;20046;-72
2023/04/04 00:54:59;;;;;;;3.78;0.68;;;;;;;-146.25;73.85;52325.63;2079401;28;32092;-71
2023/04/04 00:56:01;;;;;;;2.28;0.80;;;;;;;-146.25;73.99;52272.91;2071988;28;20057;-72
2023/04/04 00:57:05;;;;;;;2.25;0.60;;;;;;;-146.25;73.91;52276.97;2079341;28;38099;-71
2023/04/04 00:58:08;;;;;;;2.88;0.73;;;;;;;-146.25;73.88;52276.97;2079479;28;25657;-72
2023/04/04 00:59:10;;;;;;;1.20;0.50;;;;;;;-146.25;74.45;52307.38;2079675;28;27772;-72
2023/04/04 01:00:14;;;;;;;3.08;0.52;;;;;;;-146.25;74.65;52305.34;2079426;28;30173;-72
2023/04/04 01:01:16;;;;;;;2.78;0.50;;;;;;;-146.25;75.41;52291.16;2079467;28;31229;-72
2023/04/04 01:02:18;;;;;;;2.30;0.60;;;;;;;-146.25;75.84;52305.34;2080279;28;20073;-72
2023/04/04 01:03:20;;;;;;;4.80;0.82;;;;;;;-146.25;76.73;52258.72;2071528;28;29271;-72
2023/04/04 01:04:22;;;;;;;4.28;0.80;;;;;;;-146.25;76.67;52285.06;2079832;28;24554;-72
2023/04/04 01:05:24;;;;;;;3.28;0.68;;;;;;;-146.25;76.89;52281.00;2087626;28;21540;-72
2023/04/04 01:06:26;;;;;;;3.35;0.60;;;;;;;-146.25;76.79;52287.09;2071855;28;20050;-72
2023/04/04 01:07:28;;;;;;;2.33;0.52;;;;;;;-146.25;76.79;52274.94;2071352;28;28089;-71
2023/04/04 01:08:31;;;;;;;5.38;0.75;;;;;;;-146.25;76.91;52313.44;2079584;28;26843;-72
2023/04/04 01:09:34;;;;;;;5.28;0.60;;;;;;;-146.25;76.97;52299.25;2079707;28;20895;-72
2023/04/04 01:10:36;;;;;;;5.85;0.80;;;;;;;-146.25;77.51;52331.69;2080101;28;20049;-72
2023/04/04 01:11:38;;;;;;;4.78;1.02;;;;;;;-146.25;78.13;52319.53;2079314;28;20869;-72
2023/04/04 01:12:41;;;;;;;2.45;0.60;;;;;;;-146.25;77.96;52295.19;2071992;28;20572;-72
2023/04/04 01:13:44;;;;;;;4.30;1.05;;;;;;;-146.25;77.82;52293.19;2080002;28;20089;-72
2023/04/04 01:14:51;;;;;;;5.20;0.82;;;;;;;-146.25;77.70;52276.97;2079784;28;20847;-72
2023/04/04 01:15:53;;;;;;;3.47;0.80;;;;;;;-146.25;77.21;52283.03;2087628;28;24838;-72
2023/04/04 01:16:55;;;;;;;2.75;0.75;;;;;;;-146.25;77.04;52297.22;2079845;28;20042;-71
2023/04/04 01:18:02;;;;;;;2.45;0.60;;;;;;;-146.25;77.22;52319.53;2071598;28;20054;-71
2023/04/04 01:19:12;;;;;;;3.40;0.70;;;;;;;-146.25;77.25;52299.25;2073369;28;20089;-72
2023/04/04 01:20:19;;;;;;;2.08;0.63;;;;;;;-146.25;77.54;52305.34;2071184;28;20050;-71
2023/04/04 01:21:27;;;;;;;5.88;0.80;;;;;;;-146.25;78.08;52319.53;2072856;28;20049;-72
2023/04/04 01:22:33;;;;;;;2.78;0.60;;;;;;;-146.25;77.86;52299.25;2080033;28;20050;-71
2023/04/04 01:23:45;;;;;;;4.85;0.60;;;;;;;-146.25;78.16;52299.25;2079029;28;20449;-71
2023/04/04 01:24:48;;;;;;;3.45;0.70;;;;;;;-146.25;78.68;52278.97;2075098;28;20095;-72
2023/04/04 01:26:01;;;;;;;3.13;0.90;;;;;;;-146.25;78.01;52323.59;2079618;28;20046;-70
2023/04/04 01:27:05;;;;;;;2.45;0.75;;;;;;;-146.25;79.05;52281.00;2073474;28;20042;-71
2023/04/04 01:28:12;;;;;;;5.07;0.70;;;;;;;-146.25;78.58;52329.66;2079819;28;20038;-71
2023/04/04 01:29:14;;;;;;;3.28;0.80;;;;;;;-146.25;78.84;52283.03;2071451;28;20042;-71
2023/04/04 01:30:18;;;;;;;3.35;0.93;;;;;;;-146.25;78.59;52315.47;2079977;28;20041;-71
2023/04/04 01:31:36;;;;;;;3.15;0.93;;;;;;;-146.25;78.83;52272.91;2079572;28;21797;-71
2023/04/04 01:32:52;;;;;;;3.03;0.90;;;;;;;-146.25;78.04;52276.97;2086060;28;20044;-71
2023/04/04 01:34:22;;;;;;;3.05;0.60;;;;;;;-146.25;78.05;52283.03;2079081;28;32853;-71
2023/04/04 01:35:51;;;;;;;2.35;0.70;;;;;;;-146.25;77.92;52295.19;2079022;28;35881;-71
2023/04/04 01:37:24;;;;;;;4.13;0.80;;;;;;;-146.25;77.54;52319.53;2084984;28;30233;-71
2023/04/04 01:38:54;;;;;;;2.85;0.63;;;;;;;-146.25;78.04;52266.81;2079627;28;20050;-71
2023/04/04 01:40:23;;;;;;;3.35;0.70;;;;;;;-146.25;78.08;52244.50;2083431;28;20854;-70
2023/04/04 01:41:31;;;;;;;3.38;0.52;;;;;;;-146.25;78.54;52299.25;2088068;28;20093;-71
2023/04/04 01:42:35;;;;;;;2.30;0.75;;;;;;;-146.25;78.37;52289.13;2074544;28;20092;-71
2023/04/04 01:43:37;;;;;;;3.78;0.82;;;;;;;-146.25;78.63;52285.06;2064545;28;20883;-71
2023/04/04 01:44:40;;;;;;;3.63;0.68;;;;;;;-146.25;79.13;52274.94;2079430;28;20045;-71
2023/04/04 01:45:43;;;;;;;3.03;0.77;;;;;;;-146.25;79.90;52297.22;2071405;28;20089;-71
2023/04/04 01:46:52;;;;;;;4.60;0.90;;;;;;;-146.25;79.36;52285.06;2079928;28;20053;-70
2023/04/04 01:47:55;;;;;;;4.32;0.90;;;;;;;-146.25;79.26;52351.97;2079167;28;26124;-70
2023/04/04 01:48:58;;;;;;;6.18;1.02;;;;;;;-146.25;79.95;52289.13;2072427;28;20128;-70
2023/04/04 01:50:04;;;;;;;4.15;0.95;;;;;;;-146.25;79.54;52362.13;2072101;28;20038;-70
2023/04/04 01:51:08;;;;;;;3.25;0.90;;;;;;;-146.25;80.83;52307.38;2071369;28;20046;-70
2023/04/04 01:52:11;;;;;;;3.33;1.13;;;;;;;-146.25;79.94;52321.56;2080007;28;20843;-70
2023/04/04 01:53:12;;;;;;;4.03;0.90;;;;;;;-146.25;80.06;52343.88;2087767;28;20041;-70
2023/04/04 01:54:15;;;;;;;3.47;0.60;;;;;;;-146.25;80.20;52309.41;2079315;28;20057;-70
2023/04/04 01:55:17;;;;;;;2.13;0.60;;;;;;;-146.25;79.92;52289.13;2071616;28;22417;-70
2023/04/04 01:56:20;;;;;;;3.10;0.60;;;;;;;-146.25;79.50;52266.81;2079445;28;20037;-69
2023/04/04 01:57:23;;;;;;;5.22;1.02;;;;;;;-146.25;79.91;52287.09;2079707;28;20049;-69
2023/04/04 01:58:25;;;;;;;3.05;0.90;;;;;;;-146.25;79.75;52278.97;2071743;28;20177;-69
2023/04/04 01:59:27;;;;;;;5.40;0.90;;;;;;;-146.25;79.91;52291.16;2079244;28;20046;-68
2023/04/04 02:00:29;;;;;;;3.13;0.90;;;;;;;-146.25;80.19;52331.69;2077751;28;22822;-70
2023/04/04 02:01:32;;;;;;;4.85;0.82;;;;;;;-146.25;79.86;52311.44;2078802;28;40642;-69
2023/04/04 02:02:34;;;;;;;7.32;1.10;;;;;;;-146.25;80.78;52317.50;2087511;28;20041;-69
2023/04/04 02:03:35;;;;;;;2.42;0.80;;;;;;;-146.25;81.57;52281.00;2079702;28;33851;-69
2023/04/04 02:04:39;;;;;;;3.00;0.73;;;;;;;-146.25;81.39;52303.31;2080124;28;22054;-69
2023/04/04 02:05:43;;;;;;;3.60;0.95;;;;;;;-146.25;81.28;52268.84;2080382;28;20046;-69
2023/04/04 02:06:46;;;;;;;4.97;0.98;;;;;;;-146.25;81.96;52287.09;2087816;28;20992;-69
2023/04/04 02:07:50;;;;;;;3.20;0.73;;;;;;;-146.25;81.79;52299.25;2078889;28;27530;-69
2023/04/04 02:09:02;;;;;;;3.72;0.80;;;;;;;-146.25;82.22;52319.53;2079521;28;20871;-69
2023/04/04 02:10:04;;;;;;;5.30;1.27;;;;;;;-146.25;82.19;52315.47;2079625;28;20072;-69
2023/04/04 02:11:06;;;;;;;4.85;0.63;;;;;;;-146.25;82.63;52331.69;2079463;28;20042;-69
2023/04/04 02:12:08;;;;;;;2.22;0.93;;;;;;;-146.25;83.18;52315.47;2078989;28;31310;-68
2023/04/04 02:13:10;;;;;;;4.40;0.90;;;;;;;-146.25;83.28;52278.97;2080044;28;20042;-69
2023/04/04 02:14:14;;;;;;;5.28;0.98;;;;;;;-146.25;82.84;52315.47;2087820;28;20026;-69
2023/04/04 02:15:16;;;;;;;6.80;1.05;;;;;;;-146.25;83.27;52303.31;2086450;28;34997;-69
2023/04/04 02:16:23;;;;;;;3.17;0.77;;;;;;;-146.25;83.90;52289.13;2080175;28;20030;-69
2023/04/04 02:17:27;;;;;;;3.65;1.00;;;;;;;-146.25;83.70;52299.25;2079472;28;20894;-69
2023/04/04 02:18:28;;;;;;;3.30;0.85;;;;;;;-146.25;84.18;52329.66;2079473;28;20150;-68
2023/04/04 02:19:31;;;;;;;4.15;1.08;;;;;;;-146.25;84.89;52335.75;2079490;28;20038;-68
2023/04/04 02:20:32;;;;;;;4.32;1.30;;;;;;;-146.25;85.01;52327.66;2079267;28;25614;-69
2023/04/04 02:21:34;;;;;;;1.60;0.80;;;;;;;-146.25;86.32;52287.09;2079885;28;20057;-68
2023/04/04 02:22:36;;;;;;;4.45;0.98;;;;;;;-146.25;85.82;52323.59;2079789;28;29746;-69
2023/04/04 02:23:38;;;;;;;3.53;1.08;;;;;;;-146.25;86.25;52297.22;2079254;28;37069;-68
2023/04/04 02:24:41;;;;;;;3.20;1.02;;;;;;;-146.25;86.26;52325.63;2079536;28;24974;-69
2023/04/04 02:25:45;;;;;;;3.28;1.10;;;;;;;-146.25;86.21;52307.38;2079112;28;22995;-68
2023/04/04 02:26:47;;;;;;;4.90;1.23;;;;;;;-146.25;85.82;52293.19;2079657;28;30474;-68
2023/04/04 02:27:49;;;;;;;3.25;1.00;;;;;;;-146.25;86.34;52315.47;2079288;28;33917;-69
2023/04/04 02:28:51;;;;;;;3.88;0.90;;;;;;;-146.25;85.59;52301.28;2079549;28;32572;-69
2023/04/04 02:29:54;;;;;;;4.80;1.17;;;;;;;-146.25;85.61;52327.66;2078926;28;29383;-68
2023/04/04 02:31:01;;;;;;;3.88;1.05;;;;;;;-146.25;85.87;52278.97;2070817;28;28199;-69
2023/04/04 02:32:05;;;;;;;4.57;1.17;;;;;;;-146.25;86.49;52301.28;2079757;28;20732;-69
2023/04/04 02:33:07;;;;;;;3.28;0.98;;;;;;;-146.25;86.51;52311.44;2080026;28;20046;-68
2023/04/04 02:34:08;;;;;;;3.25;1.40;;;;;;;-146.25;86.55;52270.88;2080315;28;31842;-69
2023/04/04 02:35:10;;;;;;;4.22;1.05;;;;;;;-146.25;86.67;52317.50;2080897;28;20084;-69
2023/04/04 02:36:12;;;;;;;3.10;1.08;;;;;;;-146.25;86.73;52319.53;2080563;28;20925;-69
2023/04/04 02:37:14;;;;;;;3.75;1.10;;;;;;;-146.25;87.35;52297.22;2080547;28;20049;-69
2023/04/04 02:38:16;;;;;;;4.47;1.10;;;;;;;-146.25;87.49;52339.81;2088760;28;20100;-69
2023/04/04 02:39:20;;;;;;;5.07;1.05;;;;;;;-146.25;87.29;52311.44;2080334;28;20054;-69
2023/04/04 02:40:23;;;;;;;4.38;1.38;;;;;;;-146.25;87.98;52317.50;2080933;28;20045;-68
2023/04/04 02:41:25;;;;;;;4.72;0.80;;;;;;;-146.25;87.43;52307.38;2080601;28;20476;-69
2023/04/04 02:42:29;;;;;;;4.13;1.13;;;;;;;-146.25;87.36;52295.19;2081256;28;22784;-68
2023/04/04 02:43:32;;;;;;;4.25;0.95;;;;;;;-146.25;87.62;52287.09;2080694;28;20049;-69
2023/04/04 02:44:38;;;;;;;5.13;1.10;;;;;;;-146.25;87.96;52337.78;2080754;28;20903;-69
2023/04/04 02:45:44;;;;;;;3.60;1.15;;;;;;;-146.25;87.47;52303.31;2081432;28;20170;-69
2023/04/04 02:46:57;;;;;;;4.13;0.93;;;;;;;-146.25;87.58;52299.25;2080606;28;20804;-69
2023/04/04 02:48:03;;;;;;;2.67;1.10;;;;;;;-146.25;87.60;52339.81;2073035;28;20049;-68
2023/04/04 02:49:14;;;;;;;4.55;1.23;;;;;;;-146.25;87.53;52309.41;2080557;28;20076;-69
2023/04/04 02:50:20;;;;;;;4.18;1.13;;;;;;;-146.25;87.60;52299.25;2081154;28;20034;-69
2023/04/04 02:51:28;;;;;;;3.72;1.20;;;;;;;-146.25;87.72;52307.38;2080558;28;20050;-68
2023/04/04 02:52:31;;;;;;;5.50;1.20;;;;;;;-146.25;87.85;52325.63;2080797;28;20042;-69
2023/04/04 02:53:40;;;;;;;5.70;1.08;;;;;;;-146.25;87.66;52319.53;2081520;28;20058;-69
2023/04/04 02:54:54;;;;;;;6.15;1.30;;;;;;;-146.25;87.88;52315.47;2080912;28;20180;-69
2023/04/04 02:56:06;;;;;;;2.55;0.82;;;;;;;-146.25;88.23;52319.53;2082041;28;20128;-69
2023/04/04 02:57:07;;;;;;;5.68;1.40;;;;;;;-146.25;88.45;52295.19;2088869;28;20042;-68
2023/04/04 02:58:09;;;;;;;3.40;1.30;;;;;;;-146.25;88.13;52347.91;2080797;28;24837;-69
2023/04/04 02:59:11;;;;;;;7.47;1.23;;;;;;;-146.25;88.58;52309.41;2080443;28;20084;-69
2023/04/04 03:00:14;;;;;;;5.13;1.20;;;;;;;-146.25;88.29;52281.00;2081156;28;20042;-69
2023/04/04 03:01:15;;;;;;;3.92;1.10;;;;;;;-146.25;88.58;52299.25;2079498;28;24244;-69
2023/04/04 03:02:19;;;;;;;3.47;1.50;;;;;;;-146.25;88.74;52311.44;2072391;28;20148;-69
2023/04/04 03:03:24;;;;;;;3.78;1.00;;;;;;;-146.25;88.79;52268.84;2080463;28;31873;-69
2023/04/04 03:04:28;;;;;;;3.95;1.60;;;;;;;-146.25;88.86;52313.44;2080624;28;20903;-69
2023/04/04 03:05:33;;;;;;;4.63;1.38;;;;;;;-146.25;89.35;52303.31;2080320;28;23260;-69
2023/04/04 03:06:36;;;;;;;3.65;1.33;;;;;;;-146.25;89.41;52291.16;2081211;28;20034;-69
2023/04/04 03:07:38;;;;;;;4.13;1.13;;;;;;;-146.25;89.63;52339.81;2088484;28;25555;-69
2023/04/04 03:08:40;;;;;;;5.53;1.30;;;;;;;-146.25;89.92;52289.13;2071986;28;20054;-69
2023/04/04 03:09:44;;;;;;;4.10;1.40;;;;;;;-146.25;89.97;52337.78;2072553;28;20054;-70
2023/04/04 03:10:46;;;;;;;3.50;1.23;;;;;;;-146.25;89.86;52291.16;2072885;28;20039;-70
2023/04/04 03:11:50;;;;;;;5.32;1.30;;;;;;;-146.25;90.25;52335.75;2080031;28;32192;-70
2023/04/04 03:12:52;;;;;;;3.17;1.10;;;;;;;-146.25;91.09;52345.91;2080786;28;20156;-70
2023/04/04 03:13:56;;;;;;;5.20;1.50;;;;;;;-146.25;90.85;52305.34;2088834;28;20067;-70
2023/04/04 03:15:12;;;;;;;6.50;1.33;;;;;;;-146.25;90.55;52309.41;2080452;28;20097;-70
2023/04/04 03:16:16;;;;;;;4.32;1.27;;;;;;;-146.25;90.67;52307.38;2080271;28;20041;-70
2023/04/04 03:17:22;;;;;;;6.60;1.15;;;;;;;-146.25;90.88;52329.66;2080683;28;20054;-70
2023/04/04 03:18:24;;;;;;;3.45;1.55;;;;;;;-146.25;92.22;52287.09;2063598;28;28618;-70
2023/04/04 03:19:26;;;;;;;5.78;1.65;;;;;;;-146.25;93.04;52347.91;2064615;28;20926;-70
2023/04/04 03:20:28;;;;;;;5.13;1.63;;;;;;;-146.25;92.84;52335.75;2080552;28;20915;-70
2023/04/04 03:21:30;;;;;;;4.85;1.40;;;;;;;-146.25;92.58;52307.38;2080626;28;20566;-70
2023/04/04 03:22:32;;;;;;;7.55;1.50;;;;;;;-146.25;91.95;52309.41;2080304;28;20050;-70
2023/04/04 03:23:35;;;;;;;3.30;1.35;;;;;;;-146.25;91.19;52291.16;2080350;28;20923;-70
2023/04/04 03:24:37;;;;;;;4.47;1.00;;;;;;;-146.25;90.38;52289.13;2080774;28;20041;-69
2023/04/04 03:25:41;;;;;;;4.80;1.50;;;;;;;-146.25;90.72;52335.75;2088595;28;25949;-70
2023/04/04 03:26:42;;;;;;;5.65;1.08;;;;;;;-146.25;90.30;52303.31;2081197;28;20057;-69
2023/04/04 03:27:48;;;;;;;4.50;1.55;;;;;;;-146.25;89.97;52295.19;2080491;28;20891;-70
2023/04/04 03:28:57;;;;;;;3.95;1.33;;;;;;;-146.25;90.03;52295.19;2073377;28;20137;-70
2023/04/04 03:30:02;;;;;;;5.25;1.58;;;;;;;-146.25;90.07;52339.81;2072995;28;20094;-70
2023/04/04 03:31:06;;;;;;;4.95;1.70;;;;;;;-146.25;90.07;52309.41;2072731;28;20904;-70
2023/04/04 03:32:12;;;;;;;5.40;1.42;;;;;;;-146.25;90.15;52303.31;2080383;28;20045;-71
2023/04/04 03:33:14;;;;;;;6.13;1.23;;;;;;;-146.25;90.41;52351.97;2079519;28;29672;-70
2023/04/04 03:34:16;;;;;;;4.45;1.20;;;;;;;-146.25;90.49;52295.19;2088559;28;20834;-70
2023/04/04 03:35:20;;;;;;;3.63;1.17;;;;;;;-146.25;90.74;52335.75;2081337;28;20041;-70
2023/04/04 03:36:22;;;;;;;5.18;1.75;;;;;;;-146.25;90.88;52299.25;2080884;28;28280;-70
2023/04/04 03:37:24;;;;;;;4.47;1.67;;;;;;;-146.25;91.18;52331.69;2080073;28;20068;-71
2023/04/04 03:38:26;;;;;;;6.05;1.70;;;;;;;-146.25;91.40;52295.19;2080612;28;20097;-71
2023/04/04 03:39:29;;;;;;;6.40;1.85;;;;;;;-146.25;91.47;52305.34;2079695;28;33373;-69
2023/04/04 03:40:31;;;;;;;4.95;1.90;;;;;;;-146.25;91.53;52335.75;2072600;28;20165;-70
2023/04/04 03:41:34;;;;;;;3.75;1.50;;;;;;;-146.25;91.62;52315.47;2080506;28;20035;-71
2023/04/04 03:42:36;;;;;;;6.10;1.63;;;;;;;-146.25;91.76;52307.38;2079751;28;32825;-70
2023/04/04 03:43:44;;;;;;;5.75;1.95;;;;;;;-146.25;91.85;52362.13;2080457;28;20045;-70
2023/04/04 03:44:46;;;;;;;8.13;2.28;;;;;;;-146.25;91.86;52305.34;2080063;28;20050;-70
2023/04/04 03:46:03;;;;;;;4.40;2.13;;;;;;;-146.25;91.79;52311.44;2079691;28;20049;-70
2023/04/04 03:47:07;;;;;;;4.57;2.28;;;;;;;-146.25;91.74;52335.75;2074401;28;24583;-70
2023/04/04 03:48:10;;;;;;;5.68;1.88;;;;;;;-146.25;92.04;52309.41;2080172;28;22999;-70
2023/04/04 03:49:13;;;;;;;6.40;2.20;;;;;;;-146.25;91.71;52327.66;2080581;28;20049;-70
2023/04/04 03:50:15;;;;;;;3.60;1.67;;;;;;;-146.25;91.99;52307.38;2080258;28;20041;-70
2023/04/04 03:51:28;;;;;;;3.30;1.92;;;;;;;-146.25;92.26;52311.44;2080193;28;20038;-70
2023/04/04 03:52:30;;;;;;;3.25;1.80;;;;;;;-146.25;92.21;52317.50;2072399;28;20153;-70
2023/04/04 03:53:34;;;;;;;4.88;1.63;;;;;;;-146.25;92.26;52313.44;2072192;28;20054;-70
2023/04/04 03:54:36;;;;;;;5.20;1.85;;;;;;;-146.25;92.30;52335.75;2080806;28;21031;-70
2023/04/04 03:55:42;;;;;;;5.90;1.80;;;;;;;-146.25;92.54;52293.19;2088296;28;20289;-70
2023/04/04 03:56:44;;;;;;;2.70;1.63;;;;;;;-146.25;92.65;52327.66;2080416;28;20143;-70
2023/04/04 03:57:46;;;;;;;4.38;1.83;;;;;;;-146.25;92.48;52315.47;2071555;28;24093;-70
2023/04/04 03:58:49;;;;;;;7.15;1.60;;;;;;;-146.25;92.77;52295.19;2080152;28;20053;-70
2023/04/04 03:59:54;;;;;;;4.93;1.55;;;;;;;-146.25;92.84;52313.44;2080637;28;20426;-70
2023/04/04 04:00:57;;;;;;;7.75;1.60;;;;;;;-146.25;93.05;52289.13;2080393;28;20034;-70
2023/04/04 04:02:02;;;;;;;7.75;1.90;;;;;;;-146.25;93.20;52347.91;2072504;28;20057;-70
2023/04/04 04:03:03;;;;;;;6.40;1.38;;;;;;;-146.25;93.40;52323.59;2071908;28;22859;-70
2023/04/04 04:04:05;;;;;;;6.60;1.98;;;;;;;-146.25;93.69;52311.44;2079744;28;21191;-70
2023/04/04 04:05:08;;;;;;;5.55;2.03;;;;;;;-146.25;93.89;52325.63;2080384;28;20127;-70
2023/04/04 04:06:09;;;;;;;5.68;2.17;;;;;;;-146.25;94.00;52364.13;2080378;28;20858;-69
2023/04/04 04:07:11;;;;;;;6.95;2.03;;;;;;;-146.25;94.03;52297.22;2079691;28;33272;-67
2023/04/04 04:08:15;;;;;;;7.10;2.30;;;;;;;-146.25;94.69;52331.69;2079921;28;20176;-69
2023/04/04 04:09:17;;;;;;;3.72;1.70;;;;;;;-146.25;94.44;52297.22;2079767;28;32309;-68
2023/04/04 04:10:19;;;;;;;3.50;1.40;;;;;;;-146.25;94.58;52311.44;2079431;28;38348;-70
2023/04/04 04:11:22;;;;;;;4.25;1.55;;;;;;;-146.25;94.70;52327.66;2080981;28;20034;-69
2023/04/04 04:12:25;;;;;;;6.60;1.58;;;;;;;-146.25;94.64;52327.66;2080295;28;25287;-70
2023/04/04 04:13:28;;;;;;;5.47;1.92;;;;;;;-146.25;94.54;52313.44;2080634;28;25754;-69
2023/04/04 04:14:30;;;;;;;6.97;1.60;;;;;;;-146.25;94.61;52327.66;2079998;28;20038;-69
2023/04/04 04:15:35;;;;;;;4.95;1.50;;;;;;;-146.25;94.54;52337.78;2071971;28;20042;-69
2023/04/04 04:16:43;;;;;;;4.15;1.50;;;;;;;-146.25;94.51;52321.56;2080066;28;20868;-69
2023/04/04 04:17:49;;;;;;;7.35;1.50;;;;;;;-146.25;94.67;52303.31;2081137;28;20049;-69
2023/04/04 04:18:51;;;;;;;4.72;1.33;;;;;;;-146.25;94.67;52321.56;2080816;28;20042;-69
2023/04/04 04:20:07;;;;;;;3.83;1.42;;;;;;;-146.25;94.64;52313.44;2073461;28;20058;-69
2023/04/04 04:21:13;;;;;;;4.22;1.65;;;;;;;-146.25;95.00;52268.84;2080110;28;20038;-70
2023/04/04 04:22:16;;;;;;;3.88;1.65;;;;;;;-146.25;94.95;52283.03;2080586;28;20201;-69
2023/04/04 04:23:18;;;;;;;7.75;1.90;;;;;;;-146.25;94.84;52339.81;2088128;28;20899;-69
2023/04/04 04:24:23;;;;;;;5.07;1.77;;;;;;;-146.25;94.91;52331.69;2088440;28;20895;-70
2023/04/04 04:25:25;;;;;;;9.25;1.80;;;;;;;-146.25;95.38;52351.97;2080040;28;20026;-69
2023/04/04 04:26:37;;;;;;;7.57;1.88;;;;;;;-146.25;95.08;52364.13;2073107;28;20111;-70
2023/04/04 04:27:39;;;;;;;6.40;1.50;;;;;;;-146.25;94.84;52305.34;2071961;28;20734;-68
2023/04/04 04:28:42;;;;;;;7.20;1.98;;;;;;;-146.25;94.85;52333.72;2080136;28;20168;-69
2023/04/04 04:29:48;;;;;;;6.53;2.22;;;;;;;-146.25;94.76;52323.59;2080254;28;20268;-69
2023/04/04 04:30:54;;;;;;;4.05;1.75;;;;;;;-146.25;94.77;52315.47;2080117;28;20050;-69
2023/04/04 04:31:57;;;;;;;9.23;1.95;;;;;;;-146.25;94.99;52303.31;2080516;28;20041;-69
2023/04/04 04:33:03;;;;;;;6.45;1.98;;;;;;;-146.25;94.62;52345.91;2088165;28;20171;-69
2023/04/04 04:34:12;;;;;;;4.72;1.65;;;;;;;-146.25;94.59;52339.81;2080522;28;20165;-69
2023/04/04 04:35:15;;;;;;;6.00;1.88;;;;;;;-146.25;94.30;52303.31;2071752;28;20093;-69
2023/04/04 04:36:18;;;;;;;4.07;1.63;;;;;;;-146.25;94.30;52331.69;2072020;28;20038;-69
2023/04/04 04:37:30;;;;;;;4.95;1.65;;;;;;;-146.25;94.35;52337.78;2072925;28;20081;-69
2023/04/04 04:38:32;;;;;;;4.75;1.10;;;;;;;-146.25;94.02;52319.53;2080136;28;20119;-69
2023/04/04 04:39:35;;;;;;;6.28;2.10;;;;;;;-146.25;94.15;52303.31;2079789;28;20034;-69
2023/04/04 04:40:56;;;;;;;;;;;;;;;-146.25;94.46;52327.66;2086260;28;20045;-69
2023/04/04 04:42:03;;;;;;;6.80;1.58;;;;;;;-146.25;94.31;52360.09;2079909;28;19932;-69
2023/04/04 04:43:08;;;;;;;4.30;1.65;;;;;;;-146.25;94.07;52335.75;2063598;28;20051;-69
2023/04/04 04:44:10;;;;;;;4.47;1.70;;;;;;;-146.25;93.78;52317.50;2072431;28;20043;-69
2023/04/04 04:45:15;;;;;;;6.05;1.55;;;;;;;-146.25;93.72;52360.09;2071879;28;20046;-69
2023/04/04 04:46:22;;;;;;;5.75;1.60;;;;;;;-146.25;93.52;52319.53;2074394;28;20153;-69
2023/04/04 04:47:24;;;;;;;4.80;1.60;;;;;;;-146.25;93.44;52335.75;2080197;28;20100;-69
2023/04/04 04:48:26;;;;;;;7.38;1.80;;;;;;;-146.25;93.55;52343.88;2079836;28;20050;-69
2023/04/04 04:49:31;;;;;;;5.07;1.50;;;;;;;-146.25;93.63;52339.81;2080232;28;20810;-69
2023/04/04 04:50:38;;;;;;;4.60;1.40;;;;;;;-146.25;93.90;52337.78;2088188;28;20057;-69
2023/04/04 04:51:42;;;;;;;6.00;1.63;;;;;;;-146.25;94.27;52327.66;2079912;28;20892;-69
2023/04/04 04:52:51;;;;;;;5.35;1.67;;;;;;;-146.25;94.51;52303.31;2080000;28;20099;-69
2023/04/04 04:53:53;;;;;;;5.82;1.67;;;;;;;-146.25;94.38;52339.81;2072335;28;20129;-69
2023/04/04 04:54:57;;;;;;;5.97;1.75;;;;;;;-146.25;94.36;52325.63;2080012;28;21027;-69
2023/04/04 04:56:01;;;;;;;4.13;1.50;;;;;;;-146.25;94.24;52305.34;2079867;28;20888;-69